Clifton, TX (76634)

8:08 PM CST on November 25, 2014 (GMT -0600)
DD Stables | Change Station
CLOSE
Current Station
Personal Weather Station
Location: Valley Mills, TX
Elevation: 732 ft
Nearby Weather Stations

Elev 732 ft 31.70 °N, 97.49 °W | Updated 6 minutes ago

Clear
Clear
38.7 °F
Feels Like 39 °F
N
0.0
Wind Variable Wind from NE

Today
High -- | Low -- °F
--% Chance of Precip.
Yesterday
High -- | Low -- °F
Precip. -- in
7:07 AM 5:26 PM
Waxing Crescent, 15% visible
Pressure 30.20 in
Visibility 10.0 miles
Clouds Clear
Windchill 39 °F
Dew Point 32 °F
Humidity 77%
Rainfall 0.00 in
Snow Depth Not available.
UV 0 out of 12
Pollen 4.40 out of 12
Air Quality Not available.
Flu Activity Not available.
METAR KACT 260151Z 21005KT 10SM CLR 05/02 A3020 RMK AO2 SLP226 T00500017

More Conditions Fewer Conditions

Pressure 30.20 in
Visibility 10.0 miles
Clouds Clear
Windchill 39 °F
Dew Point 32 °F
Humidity 77%
Rainfall 0.00 in
Snow Depth Not available.
UV 0 out of 12
Pollen 4.40 out of 12
Air Quality Not available.
Flu Activity Not available.
METAR KACT 260151Z 21005KT 10SM CLR 05/02 A3020 RMK AO2 SLP226 T00500017

More Conditions Fewer Conditions

10-Day Weather Forecast

Almanac

Astronomy

Nov. 25, 2014 Rise Set
Actual Time
Civil Twilight
Nautical Twilight
Astronomical Twilight
Moon
Length of Visible Light
Length of Day
Tomorrow will be .
, % of the Moon is Illuminated

Today's Extremes

State Highs State Lows

Community

WunderPhotos

Upload Photos

1,773,642 photos uploaded!

WunderBlogs® & News

Nearby

Air Quality

  Air Quality AQ Index Pollutant
Not available.

Snow Depth

Station Depth Elevation

Earthquake Activity

City Distance Mag. Time & Date
Minimum magnitude displayed is 2.5.

Coastal Water Temperatures

Place Temperature

Nearby Weather Stations